Terminal Aerodrome Forecast
Issued by NWS Denver/Boulder, CO

Home | Current Version | Previous Version | Text Only | Print | Product List | Glossary On
Versions: 1 2 3 4 5 6 7 8 9 10 11 12 13 14 15 16 17 18 19 20 21 22 23 24 25 26 27 28 29 30 31 32 33 34 35 36 37 38 39 40 41 42 43 44 45 46 47 48 49 50
000
FTUS45 KBOU 172211 AAD
TAFDEN
TAF AMD
KDEN 172211Z 1722/1824 34014G22KT P6SM VCTS SCT090CB BKN140 BKN200
      TEMPO 1722/1723 VRB20G35KT SCT080CB SCT140
     FM172300 29012G18KT P6SM FEW090 SCT140 BKN220
     FM180100 26011KT P6SM SCT140 BKN220
     FM180500 22009KT P6SM FEW140 BKN220
     FM181100 36012KT P6SM VCFG SCT010 BKN020
     FM181600 31007KT P6SM SCT035 SCT100
     FM181800 04012KT P6SM SCT050 SCT090 BKN180
      TEMPO 1821/1824 VRB20G35KT +TSRA BKN030CB=

USA.gov is the U.S. government's official web portal to all federal, state and local government web resources and services.